createdAt,value
2018-10-01T00:02:23.586Z,98.13
2018-10-01T00:04:53.974Z,98.98
2018-10-01T00:07:24.276Z,99.46
2018-10-01T00:09:54.767Z,99.25
2018-10-01T00:12:25.072Z,97.89
2018-10-01T00:14:55.471Z,98.60
2018-10-01T00:17:25.784Z,98.19
2018-10-01T00:20:01.283Z,98.44
2018-10-01T00:22:49.841Z,97.67
2018-10-01T00:25:20.243Z,97.45
2018-10-01T00:27:50.633Z,96.99
2018-10-01T00:30:21.111Z,97.47
2018-10-01T00:32:51.495Z,97.63
2018-10-01T00:35:21.833Z,97.18
2018-10-01T00:37:52.163Z,98.39
2018-10-01T00:40:22.491Z,99.20
2018-10-01T00:42:52.892Z,98.49
2018-10-01T00:45:23.247Z,98.02
2018-10-01T00:47:53.949Z,98.51
2018-10-01T00:50:24.240Z,98.12
2018-10-01T00:52:54.619Z,100.00
2018-10-01T00:55:25.034Z,100.00
2018-10-01T00:57:55.433Z,100.00
2018-10-01T01:00:25.749Z,99.23
2018-10-01T01:02:56.163Z,99.14
2018-10-01T01:05:26.513Z,98.83
2018-10-01T01:07:56.790Z,98.36
2018-10-01T01:10:27.107Z,97.54
2018-10-01T01:12:57.723Z,98.35
2018-10-01T01:15:28.023Z,98.13
2018-10-01T01:17:59.444Z,98.61
2018-10-01T01:20:29.785Z,99.54
2018-10-01T01:23:00.131Z,99.00
2018-10-01T01:25:30.556Z,99.43
2018-10-01T01:28:00.840Z,100.00
2018-10-01T01:30:31.211Z,100.00
2018-10-01T01:33:01.545Z,100.00
2018-10-01T01:35:31.845Z,100.00
2018-10-01T01:38:02.161Z,100.00
2018-10-01T01:40:32.499Z,100.00
2018-10-01T01:43:03.251Z,100.00
2018-10-01T01:45:33.529Z,100.00
2018-10-01T01:48:06.803Z,99.38
2018-10-01T01:50:37.174Z,98.87
2018-10-01T01:53:09.891Z,98.04
2018-10-01T01:55:41.056Z,97.36
2018-10-01T01:58:19.291Z,97.06
2018-10-01T02:00:50.707Z,96.59
2018-10-01T02:03:20.985Z,96.03
2018-10-01T02:05:51.284Z,95.85
2018-10-01T02:08:21.694Z,95.69
2018-10-01T02:10:56.194Z,95.52
2018-10-01T02:13:27.079Z,95.09
2018-10-01T02:15:57.458Z,95.14
2018-10-01T02:18:27.913Z,95.40
2018-10-01T02:20:59.937Z,95.11
2018-10-01T02:23:30.433Z,95.40
2018-10-01T02:26:00.843Z,95.63
2018-10-01T02:28:31.182Z,95.45
2018-10-01T02:31:01.653Z,94.90
2018-10-01T02:33:32.203Z,95.00
2018-10-01T02:36:02.559Z,95.48
2018-10-01T02:38:34.379Z,95.41
2018-10-01T02:41:04.941Z,96.06
2018-10-01T02:43:37.193Z,95.34
2018-10-01T02:46:09.225Z,95.06
2018-10-01T02:48:39.559Z,95.12
2018-10-01T02:51:09.910Z,95.21
2018-10-01T02:53:46.642Z,95.43
2018-10-01T02:56:17.027Z,94.84
2018-10-01T02:58:47.520Z,95.15
2018-10-01T03:01:17.910Z,95.42
2018-10-01T03:03:48.237Z,94.66
2018-10-01T03:06:18.755Z,94.66
2018-10-01T03:08:49.187Z,94.63
2018-10-01T03:11:19.584Z,94.64
2018-10-01T03:13:50.274Z,94.45
2018-10-01T03:16:20.604Z,94.52
2018-10-01T03:18:51.045Z,94.82
2018-10-01T03:21:21.442Z,94.39
2018-10-01T03:23:53.691Z,94.47
2018-10-01T03:26:24.284Z,94.27
2018-10-01T03:28:58.566Z,94.38
2018-10-01T03:31:28.919Z,94.05
2018-10-01T03:33:59.436Z,94.18
2018-10-01T03:36:29.820Z,93.72
2018-10-01T03:39:00.160Z,93.93
2018-10-01T03:41:30.992Z,93.89
2018-10-01T03:44:01.336Z,94.27
2018-10-01T03:46:31.672Z,94.15
2018-10-01T03:49:02.894Z,93.56
2018-10-01T03:51:33.210Z,93.53
2018-10-01T03:54:03.513Z,93.38
2018-10-01T03:56:38.173Z,93.22
2018-10-01T03:59:10.443Z,93.24
2018-10-01T04:01:40.815Z,93.23
2018-10-01T04:04:11.266Z,92.71
2018-10-01T04:06:42.449Z,92.04
2018-10-01T04:09:12.810Z,91.32
2018-10-01T04:11:43.174Z,90.78
2018-10-01T04:14:13.538Z,89.74
2018-10-01T04:16:43.850Z,89.57
2018-10-01T04:19:14.154Z,89.61
2018-10-01T04:21:44.508Z,89.25
2018-10-01T04:24:14.800Z,88.65
2018-10-01T04:26:46.840Z,88.41
2018-10-01T04:29:17.196Z,87.82
2018-10-01T04:31:50.708Z,88.05
2018-10-01T04:34:21.031Z,88.18
2018-10-01T04:36:51.397Z,88.71
2018-10-01T04:39:21.954Z,88.57
2018-10-01T04:41:53.040Z,88.39
2018-10-01T04:44:23.851Z,88.61
2018-10-01T04:46:54.172Z,88.93
2018-10-01T04:49:24.532Z,88.83
2018-10-01T04:51:54.871Z,89.96
2018-10-01T04:54:25.318Z,90.52
2018-10-01T04:56:55.790Z,90.29
2018-10-01T04:59:26.094Z,90.14
2018-10-01T05:01:59.375Z,89.47
2018-10-01T05:04:31.539Z,89.23
2018-10-01T05:07:09.836Z,89.23
2018-10-01T05:09:50.930Z,89.18
2018-10-01T05:12:23.072Z,89.01
2018-10-01T05:14:53.404Z,89.18
2018-10-01T05:17:26.258Z,88.69
2018-10-01T05:19:56.934Z,88.70
2018-10-01T05:22:27.382Z,88.45
2018-10-01T05:24:58.242Z,88.73
2018-10-01T05:27:28.622Z,88.39
2018-10-01T05:29:59.037Z,87.95
2018-10-01T05:32:29.359Z,87.84
2018-10-01T05:35:00.583Z,87.52
2018-10-01T05:37:30.976Z,87.78
2018-10-01T05:40:01.441Z,87.48
2018-10-01T05:42:31.796Z,88.11
2018-10-01T05:45:02.161Z,88.02
2018-10-01T05:47:32.464Z,88.61
2018-10-01T05:50:02.831Z,87.91
2018-10-01T05:52:33.242Z,87.99
2018-10-01T05:55:03.695Z,86.10
2018-10-01T05:57:34.115Z,85.91
2018-10-01T06:00:04.600Z,86.23
2018-10-01T06:02:35.207Z,86.71
2018-10-01T06:05:05.864Z,86.34
2018-10-01T06:07:36.303Z,85.65
2018-10-01T06:10:07.461Z,83.89
2018-10-01T06:12:37.855Z,82.83
2018-10-01T06:15:08.245Z,81.95
2018-10-01T06:17:38.609Z,81.27
2018-10-01T06:20:09.015Z,80.90
2018-10-01T06:22:39.524Z,80.66
2018-10-01T06:25:10.031Z,80.04
2018-10-01T06:27:40.365Z,79.42
2018-10-01T06:30:10.745Z,78.84
2018-10-01T06:32:46.075Z,76.18
2018-10-01T06:35:16.417Z,76.52
2018-10-01T06:37:46.721Z,76.44
2018-10-01T06:40:17.925Z,75.95
2018-10-01T06:42:55.543Z,75.31
2018-10-01T06:45:25.971Z,75.14
2018-10-01T06:47:56.440Z,74.06
2018-10-01T06:50:26.962Z,73.48
2018-10-01T06:52:57.322Z,73.12
2018-10-01T06:55:27.696Z,72.36
2018-10-01T06:57:58.141Z,72.02
2018-10-01T07:00:28.545Z,71.52
2018-10-01T07:03:02.672Z,71.48
2018-10-01T07:05:34.089Z,71.34
2018-10-01T07:08:04.335Z,70.47
2018-10-01T07:10:35.544Z,69.63
2018-10-01T07:13:06.546Z,68.87
2018-10-01T07:15:38.364Z,68.03
2018-10-01T07:18:08.395Z,67.15
2018-10-01T07:20:38.730Z,67.18
2018-10-01T07:23:09.668Z,67.31
2018-10-01T07:25:40.656Z,66.14
2018-10-01T07:28:11.344Z,65.45
2018-10-01T07:30:43.057Z,65.56
2018-10-01T07:33:14.646Z,64.81
2018-10-01T07:35:45.382Z,63.85
2018-10-01T07:38:16.220Z,64.22
2018-10-01T07:40:46.440Z,64.19
2018-10-01T07:43:18.052Z,63.54
2018-10-01T07:45:49.206Z,63.88
2018-10-01T07:48:20.112Z,62.86
2018-10-01T07:50:50.535Z,62.21
2018-10-01T07:53:21.513Z,62.29
2018-10-01T07:55:52.041Z,61.47
2018-10-01T07:58:22.369Z,61.50
2018-10-01T08:00:53.640Z,61.74
2018-10-01T08:03:24.098Z,60.69
2018-10-01T08:05:54.112Z,60.91
2018-10-01T08:08:25.581Z,61.04
2018-10-01T08:10:57.052Z,60.08
2018-10-01T08:13:27.609Z,59.88
2018-10-01T08:15:58.851Z,59.01
2018-10-01T08:18:30.562Z,58.14
2018-10-01T08:21:02.353Z,57.32
2018-10-01T08:23:33.537Z,56.83
2018-10-01T08:26:04.496Z,56.74
2018-10-01T08:28:36.341Z,57.37
2018-10-01T08:31:07.474Z,58.50
2018-10-01T08:33:38.602Z,58.34
2018-10-01T08:36:09.260Z,58.33
2018-10-01T08:38:43.160Z,58.42
2018-10-01T08:41:14.849Z,58.36
2018-10-01T08:43:45.488Z,58.29
2018-10-01T08:46:17.139Z,58.41
2018-10-01T08:48:54.288Z,58.47
2018-10-01T08:51:32.523Z,57.80
2018-10-01T08:54:08.184Z,58.28
2018-10-01T08:56:38.524Z,57.55
2018-10-01T08:59:09.963Z,57.63
2018-10-01T09:01:40.134Z,57.58
2018-10-01T09:04:11.470Z,57.70
2018-10-01T09:06:42.487Z,57.09
2018-10-01T09:09:14.448Z,56.19
2018-10-01T09:11:46.004Z,54.66
2018-10-01T09:14:18.095Z,53.98
2018-10-01T09:16:48.430Z,52.56
2018-10-01T09:19:19.481Z,52.26
2018-10-01T09:21:50.522Z,49.96
2018-10-01T09:24:22.348Z,49.33
2018-10-01T09:26:53.026Z,48.63
2018-10-01T09:29:24.167Z,48.38
2018-10-01T09:31:54.270Z,49.40
2018-10-01T09:34:25.600Z,49.81
2018-10-01T09:36:55.830Z,51.83
2018-10-01T09:39:26.380Z,52.49
2018-10-01T09:41:57.403Z,53.39
2018-10-01T09:44:28.207Z,53.53
2018-10-01T09:46:58.517Z,53.40
2018-10-01T09:49:29.230Z,52.28
2018-10-01T09:52:00.700Z,53.56
2018-10-01T09:54:31.551Z,53.33
2018-10-01T09:57:01.861Z,53.56
2018-10-01T09:59:32.463Z,53.39
2018-10-01T10:02:03.257Z,52.38
2018-10-01T10:04:35.037Z,53.23
2018-10-01T10:07:05.041Z,53.97
2018-10-01T10:09:36.264Z,54.42
2018-10-01T10:12:08.045Z,55.08
2018-10-01T10:14:39.271Z,55.50
2018-10-01T10:17:09.575Z,55.25
2018-10-01T10:19:41.477Z,54.70
2018-10-01T10:22:13.228Z,56.17
2018-10-01T10:24:43.896Z,57.15
2018-10-01T10:27:14.970Z,56.75
2018-10-01T10:29:46.187Z,56.88
2018-10-01T10:32:16.816Z,56.38
2018-10-01T10:34:47.725Z,56.28
2018-10-01T10:37:18.396Z,55.74
2018-10-01T10:39:49.275Z,54.61
2018-10-01T10:42:19.919Z,54.69
2018-10-01T10:44:51.068Z,54.95
2018-10-01T10:47:22.307Z,54.92
2018-10-01T10:49:53.467Z,55.69
2018-10-01T10:52:26.013Z,54.27
2018-10-01T10:54:57.145Z,53.86
2018-10-01T10:57:27.904Z,53.84
2018-10-01T10:59:57.975Z,54.05
2018-10-01T11:02:29.555Z,52.89
2018-10-01T11:05:00.543Z,53.27
2018-10-01T11:07:31.351Z,53.37
2018-10-01T11:10:01.651Z,53.77
2018-10-01T11:12:32.021Z,54.47
2018-10-01T11:15:06.593Z,54.24
2018-10-01T11:17:37.462Z,54.31
2018-10-01T11:20:09.045Z,53.81
2018-10-01T11:22:39.521Z,54.31
2018-10-01T11:25:13.016Z,54.21
2018-10-01T11:27:45.512Z,54.98
2018-10-01T11:30:16.776Z,55.51
2018-10-01T11:32:46.825Z,56.60
2018-10-01T11:35:19.535Z,56.21
2018-10-01T11:37:51.167Z,55.04
2018-10-01T11:40:24.235Z,55.12
2018-10-01T11:42:55.495Z,54.02
2018-10-01T11:45:26.208Z,53.34
2018-10-01T11:47:56.925Z,54.38
2018-10-01T11:50:31.834Z,55.60
2018-10-01T11:53:02.668Z,56.03
2018-10-01T11:55:32.817Z,56.89
2018-10-01T11:58:03.419Z,57.27
2018-10-01T12:00:35.794Z,56.32
2018-10-01T12:03:06.227Z,56.94
2018-10-01T12:05:38.133Z,57.58
2018-10-01T12:08:08.470Z,58.19
2018-10-01T12:10:42.103Z,57.96
2018-10-01T12:13:14.484Z,58.25
2018-10-01T12:15:45.327Z,58.14
2018-10-01T12:18:15.500Z,58.56
2018-10-01T12:20:47.714Z,57.59
2018-10-01T12:23:18.331Z,55.81
2018-10-01T12:25:48.634Z,55.61
2018-10-01T12:28:18.869Z,55.76
2018-10-01T12:30:53.067Z,55.43
2018-10-01T12:33:24.214Z,55.21
2018-10-01T12:38:30.836Z,54.83
2018-10-01T12:41:00.968Z,54.43
2018-10-01T12:43:32.641Z,54.26
2018-10-01T12:46:03.855Z,54.23
2018-10-01T12:48:34.060Z,53.71
2018-10-01T12:51:04.271Z,53.56
2018-10-01T12:53:34.985Z,52.49
2018-10-01T12:56:06.434Z,52.95
2018-10-01T12:58:37.619Z,52.38
2018-10-01T13:01:07.756Z,53.36
2018-10-01T13:03:38.889Z,52.22
2018-10-01T13:06:10.935Z,50.24
2018-10-01T13:08:41.300Z,49.25
2018-10-01T13:11:12.169Z,48.03
2018-10-01T13:13:44.682Z,48.17
2018-10-01T13:16:17.196Z,48.21
2018-10-01T13:18:48.612Z,48.80
2018-10-01T13:21:18.681Z,50.37
2018-10-01T13:23:51.042Z,49.63
2018-10-01T13:26:21.185Z,50.64
2018-10-01T13:28:58.195Z,49.14
2018-10-01T13:31:28.828Z,48.97
2018-10-01T13:34:01.826Z,48.31
2018-10-01T13:36:34.539Z,47.97
2018-10-01T13:39:08.149Z,49.36
2018-10-01T13:41:40.741Z,48.73
2018-10-01T13:44:11.922Z,49.49
2018-10-01T13:46:44.187Z,48.50
2018-10-01T13:49:15.607Z,48.16
2018-10-01T13:51:47.353Z,48.33
2018-10-01T13:54:17.524Z,48.42
2018-10-01T13:56:49.362Z,46.76
2018-10-01T13:59:19.616Z,48.07
2018-10-01T14:01:51.465Z,48.19
2018-10-01T14:04:21.648Z,47.12
2018-10-01T14:06:52.897Z,46.99
2018-10-01T14:09:23.553Z,46.92
2018-10-01T14:11:55.036Z,47.59
2018-10-01T14:14:26.394Z,48.36
2018-10-01T14:17:00.621Z,48.70
2018-10-01T14:19:30.914Z,48.80
2018-10-01T14:22:02.319Z,48.69
2018-10-01T14:24:36.243Z,47.80
2018-10-01T14:27:07.648Z,48.10
2018-10-01T14:29:37.851Z,47.97
2018-10-01T14:32:08.919Z,47.70
2018-10-01T14:34:40.043Z,47.27
2018-10-01T14:37:12.029Z,47.88
2018-10-01T14:39:45.728Z,47.91
2018-10-01T14:42:16.915Z,48.10
2018-10-01T14:44:47.314Z,47.76
2018-10-01T14:47:17.859Z,48.10
2018-10-01T14:49:48.803Z,47.10
2018-10-01T14:52:20.353Z,45.69
2018-10-01T14:54:51.670Z,45.45
2018-10-01T14:57:22.459Z,44.73
2018-10-01T14:59:53.258Z,45.57
2018-10-01T15:02:23.983Z,45.66
2018-10-01T15:04:54.852Z,45.46
2018-10-01T15:07:25.740Z,46.11
2018-10-01T15:09:57.058Z,46.27
2018-10-01T15:12:28.777Z,45.52
2018-10-01T15:14:59.603Z,46.36
2018-10-01T15:17:29.974Z,46.85
2018-10-01T15:20:00.966Z,47.53
2018-10-01T15:22:32.340Z,46.91
2018-10-01T15:25:03.472Z,45.97
2018-10-01T15:27:34.590Z,44.97
2018-10-01T15:30:07.838Z,43.75
2018-10-01T15:32:38.313Z,44.28
2018-10-01T15:35:09.821Z,44.40
2018-10-01T15:37:40.251Z,44.68
2018-10-01T15:40:11.515Z,44.41
2018-10-01T15:42:42.225Z,45.69
2018-10-01T15:45:12.516Z,46.23
2018-10-01T15:47:43.081Z,46.38
2018-10-01T15:50:16.181Z,47.26
2018-10-01T15:52:48.219Z,47.33
2018-10-01T15:55:18.313Z,47.85
2018-10-01T15:57:49.451Z,46.87
2018-10-01T16:00:20.634Z,47.18
2018-10-01T16:02:51.253Z,47.71
2018-10-01T16:05:22.046Z,48.08
2018-10-01T16:07:53.459Z,47.81
2018-10-01T16:10:24.849Z,48.65
2018-10-01T16:12:56.118Z,49.54
2018-10-01T16:15:27.277Z,50.00
2018-10-01T16:17:58.700Z,50.13
2018-10-01T16:20:29.561Z,50.27
2018-10-01T16:22:59.676Z,50.94
2018-10-01T16:25:30.664Z,51.02
2018-10-01T16:28:01.911Z,51.98
2018-10-01T16:30:32.074Z,52.20
2018-10-01T16:33:02.355Z,52.08
2018-10-01T16:35:33.519Z,52.46
2018-10-01T16:38:04.636Z,52.60
2018-10-01T16:40:36.696Z,53.49
2018-10-01T16:43:07.707Z,54.24
2018-10-01T16:48:33.167Z,54.77
2018-10-01T16:51:05.735Z,55.81
2018-10-01T16:53:41.895Z,56.00
2018-10-01T16:56:12.524Z,56.24
2018-10-01T16:58:43.126Z,56.88
2018-10-01T17:01:14.733Z,58.04
2018-10-01T17:03:46.436Z,63.48
2018-10-01T17:06:16.878Z,72.49
2018-10-01T17:08:47.323Z,78.13
2018-10-01T17:11:17.642Z,80.43
2018-10-01T17:13:47.938Z,81.33
2018-10-01T17:16:17.993Z,82.07
2018-10-01T17:18:48.050Z,81.82
2018-10-01T17:21:18.133Z,82.97
2018-10-01T17:23:48.402Z,83.01
2018-10-01T17:26:18.585Z,82.79
2018-10-01T17:28:48.795Z,82.64
2018-10-01T17:31:18.851Z,83.80
2018-10-01T17:33:48.866Z,81.75
2018-10-01T17:36:19.800Z,81.48
2018-10-01T17:38:50.080Z,83.23
2018-10-01T17:41:20.229Z,81.76
2018-10-01T17:43:50.653Z,82.32
2018-10-01T17:46:21.117Z,82.76
2018-10-01T17:48:51.261Z,82.44
2018-10-01T17:51:21.395Z,82.56
2018-10-01T17:53:51.913Z,82.27
2018-10-01T17:56:22.384Z,82.06
2018-10-01T17:58:53.227Z,82.70
2018-10-01T18:01:23.297Z,80.73
2018-10-01T18:03:53.345Z,81.39
2018-10-01T18:06:24.098Z,78.29
2018-10-01T18:08:54.352Z,77.61
2018-10-01T18:11:24.369Z,76.59
2018-10-01T18:13:54.430Z,77.16
2018-10-01T18:16:24.888Z,77.45
2018-10-01T18:18:56.036Z,78.31
2018-10-01T18:21:26.590Z,79.11
2018-10-01T18:23:57.012Z,80.44
2018-10-01T18:26:27.387Z,80.76
2018-10-01T18:28:57.409Z,81.24
2018-10-01T18:31:27.517Z,81.21
2018-10-01T18:33:57.692Z,80.80
2018-10-01T18:36:28.131Z,81.18
2018-10-01T18:38:58.296Z,80.15
2018-10-01T18:41:28.461Z,80.98
2018-10-01T18:43:58.561Z,81.08
2018-10-01T18:46:28.669Z,81.32
2018-10-01T18:48:58.720Z,80.78
2018-10-01T18:51:28.795Z,81.74
2018-10-01T18:53:59.152Z,82.26
2018-10-01T18:56:29.177Z,82.46
2018-10-01T18:58:59.668Z,83.35
2018-10-01T19:01:29.984Z,83.18
2018-10-01T19:04:00.070Z,82.55
2018-10-01T19:06:30.688Z,83.18
2018-10-01T19:09:01.947Z,82.68
2018-10-01T19:11:32.718Z,81.40
2018-10-01T19:14:03.133Z,82.37
2018-10-01T19:16:33.193Z,80.61
2018-10-01T19:19:03.445Z,77.84
2018-10-01T19:21:34.787Z,78.40
2018-10-01T19:24:05.263Z,75.89
2018-10-01T19:26:35.449Z,75.31
2018-10-01T19:29:05.509Z,74.98
2018-10-01T19:31:35.756Z,73.84
2018-10-01T19:34:05.918Z,74.72
2018-10-01T19:36:37.432Z,74.29
2018-10-01T19:39:09.692Z,74.79
2018-10-01T19:41:39.891Z,74.18
2018-10-01T19:44:10.011Z,74.76
2018-10-01T19:46:40.284Z,74.89
2018-10-01T19:49:10.308Z,75.12
2018-10-01T19:51:40.536Z,74.42
2018-10-01T19:54:10.696Z,75.46
2018-10-01T19:56:40.875Z,76.99
2018-10-01T19:59:11.042Z,79.43
2018-10-01T20:01:41.115Z,81.40
2018-10-01T20:04:11.168Z,81.84
2018-10-01T20:06:41.309Z,82.60
2018-10-01T20:09:13.007Z,82.38
2018-10-01T20:11:43.264Z,82.37
2018-10-01T20:14:13.338Z,82.18
2018-10-01T20:16:43.431Z,83.33
2018-10-01T20:19:13.521Z,84.57
2018-10-01T20:21:44.446Z,85.79
2018-10-01T20:24:15.256Z,85.03
2018-10-01T20:26:46.044Z,86.15
2018-10-01T20:29:16.350Z,86.10
2018-10-01T20:31:46.397Z,86.53
2018-10-01T20:34:16.522Z,86.16
2018-10-01T20:36:46.579Z,86.73
2018-10-01T20:39:16.762Z,86.40
2018-10-01T20:41:46.785Z,87.33
2018-10-01T20:44:16.899Z,87.44
2018-10-01T20:46:47.035Z,88.04
2018-10-01T20:49:17.110Z,88.35
2018-10-01T20:51:47.232Z,88.52
2018-10-01T20:54:17.529Z,88.86
2018-10-01T20:56:47.722Z,88.70
2018-10-01T20:59:17.971Z,88.88
2018-10-01T21:01:48.210Z,88.31
2018-10-01T21:04:18.267Z,88.17
2018-10-01T21:06:48.380Z,88.23
2018-10-01T21:09:18.461Z,86.71
2018-10-01T21:11:48.540Z,86.37
2018-10-01T21:14:18.676Z,86.28
2018-10-01T21:16:49.480Z,85.49
2018-10-01T21:19:20.037Z,83.83
2018-10-01T21:21:50.419Z,83.55
2018-10-01T21:24:20.626Z,84.41
2018-10-01T21:26:50.848Z,85.61
2018-10-01T21:29:21.643Z,85.61
2018-10-01T21:31:51.796Z,85.11
2018-10-01T21:34:21.852Z,83.99
2018-10-01T21:36:52.003Z,84.39
2018-10-01T21:39:30.558Z,84.71
2018-10-01T21:42:00.697Z,84.34
2018-10-01T21:44:30.752Z,83.06
2018-10-01T21:47:00.872Z,80.93
2018-10-01T21:49:30.931Z,79.95
2018-10-01T21:52:01.032Z,79.42
2018-10-01T21:54:31.199Z,79.24
2018-10-01T21:57:01.264Z,80.58
2018-10-01T21:59:31.366Z,80.66
2018-10-01T22:02:01.530Z,81.11
2018-10-01T22:04:31.646Z,80.53
2018-10-01T22:07:01.830Z,82.72
2018-10-01T22:09:31.969Z,82.37
2018-10-01T22:12:02.137Z,83.06
2018-10-01T22:14:32.213Z,81.53
2018-10-01T22:17:02.338Z,82.82
2018-10-01T22:19:32.395Z,81.73
2018-10-01T22:22:02.492Z,81.14
2018-10-01T22:24:32.913Z,82.13
2018-10-01T22:27:03.094Z,82.46
2018-10-01T22:29:33.299Z,82.52
2018-10-01T22:32:03.379Z,82.87
2018-10-01T22:34:35.758Z,82.11
2018-10-01T22:37:06.230Z,82.71
2018-10-01T22:39:36.670Z,83.29
2018-10-01T22:42:06.740Z,83.15
2018-10-01T22:44:36.808Z,82.45
2018-10-01T22:47:06.934Z,83.10
2018-10-01T22:49:37.244Z,83.11
2018-10-01T22:52:08.290Z,82.38
2018-10-01T22:54:38.537Z,82.84
2018-10-01T22:57:08.632Z,83.00
2018-10-01T22:59:39.718Z,83.02
2018-10-01T23:02:09.760Z,83.89
2018-10-01T23:04:39.937Z,83.91
2018-10-01T23:07:10.124Z,85.12
2018-10-01T23:09:40.190Z,85.48
2018-10-01T23:12:10.351Z,85.84
2018-10-01T23:14:40.643Z,86.41
2018-10-01T23:17:10.888Z,86.06
2018-10-01T23:19:40.971Z,86.77
2018-10-01T23:22:11.126Z,86.83
2018-10-01T23:24:41.191Z,86.98
2018-10-01T23:27:12.434Z,86.60
2018-10-01T23:29:42.502Z,87.12
2018-10-01T23:32:12.798Z,87.35
2018-10-01T23:34:42.834Z,87.25
2018-10-01T23:37:12.978Z,87.69
2018-10-01T23:39:42.988Z,87.79
2018-10-01T23:42:13.608Z,88.34
2018-10-01T23:44:43.711Z,88.80
2018-10-01T23:47:13.780Z,89.66
2018-10-01T23:49:44.050Z,89.61
2018-10-01T23:52:14.186Z,89.79
2018-10-01T23:54:44.291Z,89.51
2018-10-01T23:57:14.456Z,89.54
2018-10-01T23:59:44.610Z,89.48
